Аэропорт: Николаев. Николаев

ICAO: UKON

METAR:
2019/01/21 15:00
UKON 211500Z 36007MPS 9999 FEW///CB M03/M05 Q1019 R22/190045 NOSIG
METAR:
2018/11/06 15:06
TAF 
      AMD TAF 
      AMD UKON 061502Z 0615/0724 CNL